sensor_id;sensor_type;location;lat;lon;timestamp;temperature;humidity
7658;DHT22;8462;53.156;8.220;2022-09-03T00:00:26;18.40;54.30
7658;DHT22;8462;53.156;8.220;2022-09-03T00:03:00;18.30;54.30
7658;DHT22;8462;53.156;8.220;2022-09-03T00:05:42;18.30;54.60
7658;DHT22;8462;53.156;8.220;2022-09-03T00:08:24;18.20;54.70
7658;DHT22;8462;53.156;8.220;2022-09-03T00:10:58;18.10;54.80
7658;DHT22;8462;53.156;8.220;2022-09-03T00:13:32;18.10;54.80
7658;DHT22;8462;53.156;8.220;2022-09-03T00:16:05;18.10;55.00
7658;DHT22;8462;53.156;8.220;2022-09-03T00:18:35;18.10;55.10
7658;DHT22;8462;53.156;8.220;2022-09-03T00:21:09;18.10;55.20
7658;DHT22;8462;53.156;8.220;2022-09-03T00:23:48;18.00;55.30
7658;DHT22;8462;53.156;8.220;2022-09-03T00:26:25;18.00;55.50
7658;DHT22;8462;53.156;8.220;2022-09-03T00:29:11;17.90;55.80
7658;DHT22;8462;53.156;8.220;2022-09-03T00:31:42;17.80;57.10
7658;DHT22;8462;53.156;8.220;2022-09-03T00:34:16;17.70;56.50
7658;DHT22;8462;53.156;8.220;2022-09-03T00:36:46;17.70;57.00
7658;DHT22;8462;53.156;8.220;2022-09-03T00:39:17;17.60;57.40
7658;DHT22;8462;53.156;8.220;2022-09-03T00:42:04;17.50;57.60
7658;DHT22;8462;53.156;8.220;2022-09-03T00:44:49;17.40;58.10
7658;DHT22;8462;53.156;8.220;2022-09-03T00:47:29;17.30;58.30
7658;DHT22;8462;53.156;8.220;2022-09-03T00:50:08;17.20;58.60
7658;DHT22;8462;53.156;8.220;2022-09-03T00:52:53;17.10;58.80
7658;DHT22;8462;53.156;8.220;2022-09-03T00:55:37;17.10;59.00
7658;DHT22;8462;53.156;8.220;2022-09-03T00:58:39;17.00;59.00
7658;DHT22;8462;53.156;8.220;2022-09-03T01:01:14;17.00;59.30
7658;DHT22;8462;53.156;8.220;2022-09-03T01:03:49;16.90;59.30
7658;DHT22;8462;53.156;8.220;2022-09-03T01:06:26;16.90;59.60
7658;DHT22;8462;53.156;8.220;2022-09-03T01:09:20;16.80;59.80
7658;DHT22;8462;53.156;8.220;2022-09-03T01:11:58;16.80;60.00
7658;DHT22;8462;53.156;8.220;2022-09-03T01:14:35;16.70;60.20
7658;DHT22;8462;53.156;8.220;2022-09-03T01:17:18;16.60;60.40
7658;DHT22;8462;53.156;8.220;2022-09-03T01:20:03;16.50;60.60
7658;DHT22;8462;53.156;8.220;2022-09-03T01:25:46;16.40;61.00
7658;DHT22;8462;53.156;8.220;2022-09-03T01:28:39;16.40;61.20
7658;DHT22;8462;53.156;8.220;2022-09-03T01:31:15;16.30;61.30
7658;DHT22;8462;53.156;8.220;2022-09-03T01:33:53;16.30;61.40
7658;DHT22;8462;53.156;8.220;2022-09-03T01:36:30;16.20;61.50
7658;DHT22;8462;53.156;8.220;2022-09-03T01:39:02;16.20;61.50
7658;DHT22;8462;53.156;8.220;2022-09-03T01:41:40;16.20;61.70
7658;DHT22;8462;53.156;8.220;2022-09-03T01:44:39;16.20;61.70
7658;DHT22;8462;53.156;8.220;2022-09-03T01:47:17;16.20;61.90
7658;DHT22;8462;53.156;8.220;2022-09-03T01:49:52;16.20;62.00
7658;DHT22;8462;53.156;8.220;2022-09-03T01:52:35;16.10;62.10
7658;DHT22;8462;53.156;8.220;2022-09-03T01:55:12;16.10;62.20
7658;DHT22;8462;53.156;8.220;2022-09-03T01:58:13;16.00;62.30
7658;DHT22;8462;53.156;8.220;2022-09-03T02:00:50;16.00;62.30
7658;DHT22;8462;53.156;8.220;2022-09-03T02:03:22;15.90;62.50
7658;DHT22;8462;53.156;8.220;2022-09-03T02:05:50;15.90;62.70
7658;DHT22;8462;53.156;8.220;2022-09-03T02:08:23;15.90;62.70
7658;DHT22;8462;53.156;8.220;2022-09-03T02:10:57;15.90;62.80
7658;DHT22;8462;53.156;8.220;2022-09-03T02:13:30;15.80;62.90
7658;DHT22;8462;53.156;8.220;2022-09-03T02:16:09;15.80;63.00
7658;DHT22;8462;53.156;8.220;2022-09-03T02:18:40;15.80;63.20
7658;DHT22;8462;53.156;8.220;2022-09-03T02:21:09;15.70;63.10
7658;DHT22;8462;53.156;8.220;2022-09-03T02:23:43;15.70;63.40
7658;DHT22;8462;53.156;8.220;2022-09-03T02:26:11;15.70;63.30
7658;DHT22;8462;53.156;8.220;2022-09-03T02:28:39;15.70;63.60
7658;DHT22;8462;53.156;8.220;2022-09-03T02:31:07;15.60;63.60
7658;DHT22;8462;53.156;8.220;2022-09-03T02:33:37;15.70;63.70
7658;DHT22;8462;53.156;8.220;2022-09-03T02:36:08;15.60;63.90
7658;DHT22;8462;53.156;8.220;2022-09-03T02:38:36;15.60;64.10
7658;DHT22;8462;53.156;8.220;2022-09-03T02:41:03;15.50;64.00
7658;DHT22;8462;53.156;8.220;2022-09-03T02:43:33;15.50;64.10
7658;DHT22;8462;53.156;8.220;2022-09-03T02:46:06;15.50;64.20
7658;DHT22;8462;53.156;8.220;2022-09-03T02:48:35;15.50;64.20
7658;DHT22;8462;53.156;8.220;2022-09-03T02:51:02;15.50;64.20
7658;DHT22;8462;53.156;8.220;2022-09-03T02:53:29;15.50;64.20
7658;DHT22;8462;53.156;8.220;2022-09-03T02:55:59;15.40;64.40
7658;DHT22;8462;53.156;8.220;2022-09-03T02:58:27;15.40;64.40
7658;DHT22;8462;53.156;8.220;2022-09-03T03:00:56;15.40;64.40
7658;DHT22;8462;53.156;8.220;2022-09-03T03:03:23;15.40;64.50
7658;DHT22;8462;53.156;8.220;2022-09-03T03:05:53;15.40;64.50
7658;DHT22;8462;53.156;8.220;2022-09-03T03:08:22;15.30;64.50
7658;DHT22;8462;53.156;8.220;2022-09-03T03:10:51;15.30;64.60
7658;DHT22;8462;53.156;8.220;2022-09-03T03:13:21;15.40;64.60
7658;DHT22;8462;53.156;8.220;2022-09-03T03:15:48;15.30;64.70
7658;DHT22;8462;53.156;8.220;2022-09-03T03:18:15;15.30;64.80
7658;DHT22;8462;53.156;8.220;2022-09-03T03:20:42;15.30;64.90
7658;DHT22;8462;53.156;8.220;2022-09-03T03:23:11;15.20;64.90
7658;DHT22;8462;53.156;8.220;2022-09-03T03:25:39;15.20;65.00
7658;DHT22;8462;53.156;8.220;2022-09-03T03:28:07;15.20;65.10
7658;DHT22;8462;53.156;8.220;2022-09-03T03:30:36;15.10;65.30
7658;DHT22;8462;53.156;8.220;2022-09-03T03:33:04;15.10;65.50
7658;DHT22;8462;53.156;8.220;2022-09-03T03:35:31;15.10;65.60
7658;DHT22;8462;53.156;8.220;2022-09-03T03:37:59;15.00;65.60
7658;DHT22;8462;53.156;8.220;2022-09-03T03:40:27;15.00;65.80
7658;DHT22;8462;53.156;8.220;2022-09-03T03:42:56;15.00;66.00
7658;DHT22;8462;53.156;8.220;2022-09-03T03:45:23;14.90;66.10
7658;DHT22;8462;53.156;8.220;2022-09-03T03:47:50;14.90;66.20
7658;DHT22;8462;53.156;8.220;2022-09-03T03:50:17;14.90;66.20
7658;DHT22;8462;53.156;8.220;2022-09-03T03:52:45;14.90;67.20
7658;DHT22;8462;53.156;8.220;2022-09-03T03:55:13;14.90;66.20
7658;DHT22;8462;53.156;8.220;2022-09-03T03:57:41;14.90;66.30
7658;DHT22;8462;53.156;8.220;2022-09-03T04:00:12;14.90;66.30
7658;DHT22;8462;53.156;8.220;2022-09-03T04:02:42;14.90;66.30
7658;DHT22;8462;53.156;8.220;2022-09-03T04:05:15;14.80;66.30
7658;DHT22;8462;53.156;8.220;2022-09-03T04:07:42;14.80;66.30
7658;DHT22;8462;53.156;8.220;2022-09-03T04:10:10;14.80;66.20
7658;DHT22;8462;53.156;8.220;2022-09-03T04:12:37;14.90;66.40
7658;DHT22;8462;53.156;8.220;2022-09-03T04:15:06;14.80;66.40
7658;DHT22;8462;53.156;8.220;2022-09-03T04:17:35;14.80;66.50
7658;DHT22;8462;53.156;8.220;2022-09-03T04:20:03;14.80;66.50
7658;DHT22;8462;53.156;8.220;2022-09-03T04:22:30;14.80;66.50
7658;DHT22;8462;53.156;8.220;2022-09-03T04:24:57;14.80;66.60
7658;DHT22;8462;53.156;8.220;2022-09-03T04:27:24;14.70;66.50
7658;DHT22;8462;53.156;8.220;2022-09-03T04:29:52;14.70;66.50
7658;DHT22;8462;53.156;8.220;2022-09-03T04:32:23;14.70;66.60
7658;DHT22;8462;53.156;8.220;2022-09-03T04:35:08;14.70;66.70
7658;DHT22;8462;53.156;8.220;2022-09-03T04:37:35;14.70;66.70
7658;DHT22;8462;53.156;8.220;2022-09-03T04:40:03;14.70;66.70
7658;DHT22;8462;53.156;8.220;2022-09-03T04:42:30;14.70;66.80
7658;DHT22;8462;53.156;8.220;2022-09-03T04:45:00;14.60;66.90
7658;DHT22;8462;53.156;8.220;2022-09-03T04:47:58;14.60;67.10
7658;DHT22;8462;53.156;8.220;2022-09-03T04:50:31;14.60;67.30
7658;DHT22;8462;53.156;8.220;2022-09-03T04:53:01;14.60;67.40
7658;DHT22;8462;53.156;8.220;2022-09-03T04:55:32;14.50;67.50
7658;DHT22;8462;53.156;8.220;2022-09-03T04:57:59;14.50;67.70
7658;DHT22;8462;53.156;8.220;2022-09-03T05:00:26;14.50;67.70
7658;DHT22;8462;53.156;8.220;2022-09-03T05:03:00;14.50;67.80
7658;DHT22;8462;53.156;8.220;2022-09-03T05:05:29;14.50;68.00
7658;DHT22;8462;53.156;8.220;2022-09-03T05:07:58;14.50;68.10
7658;DHT22;8462;53.156;8.220;2022-09-03T05:10:26;14.50;68.10
7658;DHT22;8462;53.156;8.220;2022-09-03T05:12:57;14.60;68.10
7658;DHT22;8462;53.156;8.220;2022-09-03T05:15:24;14.70;67.90
7658;DHT22;8462;53.156;8.220;2022-09-03T05:17:55;14.80;67.50
7658;DHT22;8462;53.156;8.220;2022-09-03T05:20:23;14.80;67.20
7658;DHT22;8462;53.156;8.220;2022-09-03T05:22:52;15.00;67.30
7658;DHT22;8462;53.156;8.220;2022-09-03T05:25:19;15.30;67.00
7658;DHT22;8462;53.156;8.220;2022-09-03T05:27:47;16.10;65.10
7658;DHT22;8462;53.156;8.220;2022-09-03T05:30:15;16.90;62.80
7658;DHT22;8462;53.156;8.220;2022-09-03T05:32:42;17.70;60.00
7658;DHT22;8462;53.156;8.220;2022-09-03T05:35:09;18.50;57.40
7658;DHT22;8462;53.156;8.220;2022-09-03T05:37:37;19.20;55.80
7658;DHT22;8462;53.156;8.220;2022-09-03T05:40:05;19.70;54.40
7658;DHT22;8462;53.156;8.220;2022-09-03T05:42:36;20.20;52.80
7658;DHT22;8462;53.156;8.220;2022-09-03T05:45:06;20.70;51.90
7658;DHT22;8462;53.156;8.220;2022-09-03T05:47:36;21.20;50.70
7658;DHT22;8462;53.156;8.220;2022-09-03T05:50:06;21.50;49.40
7658;DHT22;8462;53.156;8.220;2022-09-03T05:52:33;21.80;49.10
7658;DHT22;8462;53.156;8.220;2022-09-03T05:55:03;22.10;47.70
7658;DHT22;8462;53.156;8.220;2022-09-03T05:57:30;22.20;47.20
7658;DHT22;8462;53.156;8.220;2022-09-03T05:59:57;22.00;46.90
7658;DHT22;8462;53.156;8.220;2022-09-03T06:02:24;21.70;47.90
7658;DHT22;8462;53.156;8.220;2022-09-03T06:04:51;21.70;48.50
7658;DHT22;8462;53.156;8.220;2022-09-03T06:07:19;21.90;48.00
7658;DHT22;8462;53.156;8.220;2022-09-03T06:09:46;21.90;47.30
7658;DHT22;8462;53.156;8.220;2022-09-03T06:12:15;21.50;47.70
7658;DHT22;8462;53.156;8.220;2022-09-03T06:14:42;20.90;49.60
7658;DHT22;8462;53.156;8.220;2022-09-03T06:17:09;20.80;50.40
7658;DHT22;8462;53.156;8.220;2022-09-03T06:19:37;21.10;49.70
7658;DHT22;8462;53.156;8.220;2022-09-03T06:22:04;21.40;49.30
7658;DHT22;8462;53.156;8.220;2022-09-03T06:24:31;21.70;48.40
7658;DHT22;8462;53.156;8.220;2022-09-03T06:26:58;21.60;48.00
7658;DHT22;8462;53.156;8.220;2022-09-03T06:29:27;21.20;48.20
7658;DHT22;8462;53.156;8.220;2022-09-03T06:31:54;20.60;49.90
7658;DHT22;8462;53.156;8.220;2022-09-03T06:34:21;20.30;51.10
7658;DHT22;8462;53.156;8.220;2022-09-03T06:36:51;20.20;51.50
7658;DHT22;8462;53.156;8.220;2022-09-03T06:39:18;20.20;51.30
7658;DHT22;8462;53.156;8.220;2022-09-03T06:41:45;20.40;51.10
7658;DHT22;8462;53.156;8.220;2022-09-03T06:44:24;20.80;50.90
7658;DHT22;8462;53.156;8.220;2022-09-03T06:46:52;21.20;49.70
7658;DHT22;8462;53.156;8.220;2022-09-03T06:49:19;21.60;49.10
7658;DHT22;8462;53.156;8.220;2022-09-03T06:51:46;22.10;48.00
7658;DHT22;8462;53.156;8.220;2022-09-03T06:54:13;22.40;47.70
7658;DHT22;8462;53.156;8.220;2022-09-03T06:56:40;22.70;46.70
7658;DHT22;8462;53.156;8.220;2022-09-03T06:59:09;22.90;46.40
7658;DHT22;8462;53.156;8.220;2022-09-03T07:01:36;23.40;45.30
7658;DHT22;8462;53.156;8.220;2022-09-03T07:04:07;23.50;44.70
7658;DHT22;8462;53.156;8.220;2022-09-03T07:06:36;23.50;44.40
7658;DHT22;8462;53.156;8.220;2022-09-03T07:09:05;23.60;45.00
7658;DHT22;8462;53.156;8.220;2022-09-03T07:11:32;23.70;45.30
7658;DHT22;8462;53.156;8.220;2022-09-03T07:14:01;23.90;43.90
7658;DHT22;8462;53.156;8.220;2022-09-03T07:16:31;23.90;43.40
7658;DHT22;8462;53.156;8.220;2022-09-03T07:18:58;24.00;43.70
7658;DHT22;8462;53.156;8.220;2022-09-03T07:21:31;24.30;43.30
7658;DHT22;8462;53.156;8.220;2022-09-03T07:23:59;24.40;44.20
7658;DHT22;8462;53.156;8.220;2022-09-03T07:26:30;24.50;42.90
7658;DHT22;8462;53.156;8.220;2022-09-03T07:28:58;24.50;42.80
7658;DHT22;8462;53.156;8.220;2022-09-03T07:31:27;24.40;42.80
7658;DHT22;8462;53.156;8.220;2022-09-03T07:33:55;24.40;42.90
7658;DHT22;8462;53.156;8.220;2022-09-03T07:36:23;24.40;42.60
7658;DHT22;8462;53.156;8.220;2022-09-03T07:38:54;24.20;43.00
7658;DHT22;8462;53.156;8.220;2022-09-03T07:41:22;24.10;43.20
7658;DHT22;8462;53.156;8.220;2022-09-03T07:43:50;23.70;43.60
7658;DHT22;8462;53.156;8.220;2022-09-03T07:46:18;23.10;44.70
7658;DHT22;8462;53.156;8.220;2022-09-03T07:48:48;22.50;46.10
7658;DHT22;8462;53.156;8.220;2022-09-03T07:51:16;22.00;46.90
7658;DHT22;8462;53.156;8.220;2022-09-03T07:53:44;21.70;47.80
7658;DHT22;8462;53.156;8.220;2022-09-03T07:56:13;21.50;48.00
7658;DHT22;8462;53.156;8.220;2022-09-03T07:58:40;21.30;49.20
7658;DHT22;8462;53.156;8.220;2022-09-03T08:01:09;21.10;48.70
7658;DHT22;8462;53.156;8.220;2022-09-03T08:03:37;20.90;49.20
7658;DHT22;8462;53.156;8.220;2022-09-03T08:06:06;20.90;49.50
7658;DHT22;8462;53.156;8.220;2022-09-03T08:08:33;21.00;50.60
7658;DHT22;8462;53.156;8.220;2022-09-03T08:11:06;21.20;49.30
7658;DHT22;8462;53.156;8.220;2022-09-03T08:13:37;21.30;48.70
7658;DHT22;8462;53.156;8.220;2022-09-03T08:16:05;21.30;48.90
7658;DHT22;8462;53.156;8.220;2022-09-03T08:18:33;21.50;48.40
7658;DHT22;8462;53.156;8.220;2022-09-03T08:21:03;21.60;48.10
7658;DHT22;8462;53.156;8.220;2022-09-03T08:23:32;21.70;47.90
7658;DHT22;8462;53.156;8.220;2022-09-03T08:26:00;21.90;47.60
7658;DHT22;8462;53.156;8.220;2022-09-03T08:28:29;22.10;47.70
7658;DHT22;8462;53.156;8.220;2022-09-03T08:31:05;22.30;47.50
7658;DHT22;8462;53.156;8.220;2022-09-03T08:34:00;22.50;47.10
7658;DHT22;8462;53.156;8.220;2022-09-03T08:36:29;22.70;46.90
7658;DHT22;8462;53.156;8.220;2022-09-03T08:38:57;22.90;46.30
7658;DHT22;8462;53.156;8.220;2022-09-03T08:41:38;23.00;45.80
7658;DHT22;8462;53.156;8.220;2022-09-03T08:44:19;23.10;45.90
7658;DHT22;8462;53.156;8.220;2022-09-03T08:46:59;23.30;45.20
7658;DHT22;8462;53.156;8.220;2022-09-03T08:49:37;23.20;45.20
7658;DHT22;8462;53.156;8.220;2022-09-03T08:52:21;23.30;45.20
7658;DHT22;8462;53.156;8.220;2022-09-03T08:54:54;23.40;45.10
7658;DHT22;8462;53.156;8.220;2022-09-03T08:57:24;23.40;44.30
7658;DHT22;8462;53.156;8.220;2022-09-03T08:59:55;23.50;44.90
7658;DHT22;8462;53.156;8.220;2022-09-03T09:02:31;23.60;44.40
7658;DHT22;8462;53.156;8.220;2022-09-03T09:05:10;23.60;44.30
7658;DHT22;8462;53.156;8.220;2022-09-03T09:07:47;23.60;44.60
7658;DHT22;8462;53.156;8.220;2022-09-03T09:10:24;23.90;44.50
7658;DHT22;8462;53.156;8.220;2022-09-03T09:13:09;24.10;43.70
7658;DHT22;8462;53.156;8.220;2022-09-03T09:15:47;24.30;42.30
7658;DHT22;8462;53.156;8.220;2022-09-03T09:18:24;24.30;41.90
7658;DHT22;8462;53.156;8.220;2022-09-03T09:21:01;24.20;42.70
7658;DHT22;8462;53.156;8.220;2022-09-03T09:23:33;24.50;43.20
7658;DHT22;8462;53.156;8.220;2022-09-03T09:26:07;24.70;42.00
7658;DHT22;8462;53.156;8.220;2022-09-03T09:28:39;24.70;41.50
7658;DHT22;8462;53.156;8.220;2022-09-03T09:31:14;24.80;41.10
7658;DHT22;8462;53.156;8.220;2022-09-03T09:33:44;24.90;41.00
7658;DHT22;8462;53.156;8.220;2022-09-03T09:36:14;24.90;41.20
7658;DHT22;8462;53.156;8.220;2022-09-03T09:38:44;25.00;40.60
7658;DHT22;8462;53.156;8.220;2022-09-03T09:41:14;24.90;41.30
7658;DHT22;8462;53.156;8.220;2022-09-03T09:43:43;25.00;40.70
7658;DHT22;8462;53.156;8.220;2022-09-03T09:46:19;25.00;39.90
7658;DHT22;8462;53.156;8.220;2022-09-03T09:48:51;25.00;39.90
7658;DHT22;8462;53.156;8.220;2022-09-03T09:51:22;25.00;39.80
7658;DHT22;8462;53.156;8.220;2022-09-03T09:54:00;25.00;39.00
7658;DHT22;8462;53.156;8.220;2022-09-03T09:56:32;25.00;39.00
7658;DHT22;8462;53.156;8.220;2022-09-03T09:59:07;25.20;38.90
7658;DHT22;8462;53.156;8.220;2022-09-03T10:01:37;25.30;38.60
7658;DHT22;8462;53.156;8.220;2022-09-03T10:04:10;25.40;38.60
7658;DHT22;8462;53.156;8.220;2022-09-03T10:06:38;25.30;38.30
7658;DHT22;8462;53.156;8.220;2022-09-03T10:09:25;25.20;38.20
7658;DHT22;8462;53.156;8.220;2022-09-03T10:12:02;25.30;38.40
7658;DHT22;8462;53.156;8.220;2022-09-03T10:14:36;25.50;38.10
7658;DHT22;8462;53.156;8.220;2022-09-03T10:17:13;25.40;37.80
7658;DHT22;8462;53.156;8.220;2022-09-03T10:19:51;25.40;37.80
7658;DHT22;8462;53.156;8.220;2022-09-03T10:22:39;25.50;37.30
7658;DHT22;8462;53.156;8.220;2022-09-03T10:25:08;25.60;37.40
7658;DHT22;8462;53.156;8.220;2022-09-03T10:27:36;25.70;36.50
7658;DHT22;8462;53.156;8.220;2022-09-03T10:30:05;25.80;36.60
7658;DHT22;8462;53.156;8.220;2022-09-03T10:32:42;25.80;36.50
7658;DHT22;8462;53.156;8.220;2022-09-03T10:35:19;25.90;36.10
7658;DHT22;8462;53.156;8.220;2022-09-03T10:37:53;25.80;36.50
7658;DHT22;8462;53.156;8.220;2022-09-03T10:40:27;25.80;36.50
7658;DHT22;8462;53.156;8.220;2022-09-03T10:43:27;25.70;36.50
7658;DHT22;8462;53.156;8.220;2022-09-03T10:46:01;25.60;36.90
7658;DHT22;8462;53.156;8.220;2022-09-03T10:48:52;25.50;36.40
7658;DHT22;8462;53.156;8.220;2022-09-03T10:51:26;25.50;36.50
7658;DHT22;8462;53.156;8.220;2022-09-03T10:54:08;25.50;36.50
7658;DHT22;8462;53.156;8.220;2022-09-03T10:56:52;25.40;37.00
7658;DHT22;8462;53.156;8.220;2022-09-03T10:59:31;25.40;37.80
7658;DHT22;8462;53.156;8.220;2022-09-03T11:02:12;25.40;36.80
7658;DHT22;8462;53.156;8.220;2022-09-03T11:04:50;25.40;37.00
7658;DHT22;8462;53.156;8.220;2022-09-03T11:07:23;25.40;37.00
7658;DHT22;8462;53.156;8.220;2022-09-03T11:10:08;25.40;36.60
7658;DHT22;8462;53.156;8.220;2022-09-03T11:12:41;25.50;36.10
7658;DHT22;8462;53.156;8.220;2022-09-03T11:15:14;25.40;36.90
7658;DHT22;8462;53.156;8.220;2022-09-03T11:17:53;25.50;36.50
7658;DHT22;8462;53.156;8.220;2022-09-03T11:20:24;25.60;35.90
7658;DHT22;8462;53.156;8.220;2022-09-03T11:22:56;25.70;36.10
7658;DHT22;8462;53.156;8.220;2022-09-03T11:25:41;25.80;35.90
7658;DHT22;8462;53.156;8.220;2022-09-03T11:28:19;25.70;35.90
7658;DHT22;8462;53.156;8.220;2022-09-03T11:31:01;25.60;36.00
7658;DHT22;8462;53.156;8.220;2022-09-03T11:33:31;25.70;36.10
7658;DHT22;8462;53.156;8.220;2022-09-03T11:36:01;25.90;36.30
7658;DHT22;8462;53.156;8.220;2022-09-03T11:38:34;25.80;36.10
7658;DHT22;8462;53.156;8.220;2022-09-03T11:41:11;25.80;36.20
7658;DHT22;8462;53.156;8.220;2022-09-03T11:43:39;25.80;36.20
7658;DHT22;8462;53.156;8.220;2022-09-03T11:46:11;25.80;36.50
7658;DHT22;8462;53.156;8.220;2022-09-03T11:48:41;25.80;36.20
7658;DHT22;8462;53.156;8.220;2022-09-03T11:51:28;25.70;36.40
7658;DHT22;8462;53.156;8.220;2022-09-03T11:53:59;25.80;36.60
7658;DHT22;8462;53.156;8.220;2022-09-03T11:56:28;25.70;36.90
7658;DHT22;8462;53.156;8.220;2022-09-03T11:59:00;25.80;36.50
7658;DHT22;8462;53.156;8.220;2022-09-03T12:01:28;25.80;36.20
7658;DHT22;8462;53.156;8.220;2022-09-03T12:03:59;25.80;36.90
7658;DHT22;8462;53.156;8.220;2022-09-03T12:06:56;25.80;36.40
7658;DHT22;8462;53.156;8.220;2022-09-03T12:09:51;25.80;36.70
7658;DHT22;8462;53.156;8.220;2022-09-03T12:12:35;25.80;36.80
7658;DHT22;8462;53.156;8.220;2022-09-03T12:15:10;25.80;36.80
7658;DHT22;8462;53.156;8.220;2022-09-03T12:17:46;25.90;36.60
7658;DHT22;8462;53.156;8.220;2022-09-03T12:20:35;25.90;36.40
7658;DHT22;8462;53.156;8.220;2022-09-03T12:23:02;26.00;36.40
7658;DHT22;8462;53.156;8.220;2022-09-03T12:25:31;26.10;36.30
7658;DHT22;8462;53.156;8.220;2022-09-03T12:28:00;26.00;36.20
7658;DHT22;8462;53.156;8.220;2022-09-03T12:30:28;26.10;36.30
7658;DHT22;8462;53.156;8.220;2022-09-03T12:33:04;26.10;36.30
7658;DHT22;8462;53.156;8.220;2022-09-03T12:35:31;26.10;36.40
7658;DHT22;8462;53.156;8.220;2022-09-03T12:37:58;26.10;36.40
7658;DHT22;8462;53.156;8.220;2022-09-03T12:40:27;26.10;36.30
7658;DHT22;8462;53.156;8.220;2022-09-03T12:43:11;26.10;36.70
7658;DHT22;8462;53.156;8.220;2022-09-03T12:45:42;26.20;36.30
7658;DHT22;8462;53.156;8.220;2022-09-03T12:48:14;26.20;36.30
7658;DHT22;8462;53.156;8.220;2022-09-03T12:50:42;26.20;36.10
7658;DHT22;8462;53.156;8.220;2022-09-03T12:53:12;26.20;36.70
7658;DHT22;8462;53.156;8.220;2022-09-03T12:55:42;26.20;36.00
7658;DHT22;8462;53.156;8.220;2022-09-03T12:58:17;26.20;36.00
7658;DHT22;8462;53.156;8.220;2022-09-03T13:00:46;26.10;36.70
7658;DHT22;8462;53.156;8.220;2022-09-03T13:03:18;26.10;36.40
7658;DHT22;8462;53.156;8.220;2022-09-03T13:05:50;26.10;36.80
7658;DHT22;8462;53.156;8.220;2022-09-03T13:08:21;26.20;36.50
7658;DHT22;8462;53.156;8.220;2022-09-03T13:10:51;26.30;36.50
7658;DHT22;8462;53.156;8.220;2022-09-03T13:13:22;26.20;36.30
7658;DHT22;8462;53.156;8.220;2022-09-03T13:15:59;26.10;36.70
7658;DHT22;8462;53.156;8.220;2022-09-03T13:18:31;26.00;36.50
7658;DHT22;8462;53.156;8.220;2022-09-03T13:21:10;26.00;36.30
7658;DHT22;8462;53.156;8.220;2022-09-03T13:23:58;26.10;36.60
7658;DHT22;8462;53.156;8.220;2022-09-03T13:26:34;26.20;36.60
7658;DHT22;8462;53.156;8.220;2022-09-03T13:29:28;26.20;36.40
7658;DHT22;8462;53.156;8.220;2022-09-03T13:32:10;26.20;36.50
7658;DHT22;8462;53.156;8.220;2022-09-03T13:34:47;26.20;36.70
7658;DHT22;8462;53.156;8.220;2022-09-03T13:37:25;26.20;36.30
7658;DHT22;8462;53.156;8.220;2022-09-03T13:39:56;26.20;36.50
7658;DHT22;8462;53.156;8.220;2022-09-03T13:42:26;26.30;36.20
7658;DHT22;8462;53.156;8.220;2022-09-03T13:45:04;26.30;36.20
7658;DHT22;8462;53.156;8.220;2022-09-03T13:47:41;26.30;36.80
7658;DHT22;8462;53.156;8.220;2022-09-03T13:50:36;26.40;36.10
7658;DHT22;8462;53.156;8.220;2022-09-03T13:53:08;26.40;35.90
7658;DHT22;8462;53.156;8.220;2022-09-03T13:55:45;26.40;35.80
7658;DHT22;8462;53.156;8.220;2022-09-03T13:58:20;26.50;35.70
7658;DHT22;8462;53.156;8.220;2022-09-03T14:01:03;26.50;35.90
7658;DHT22;8462;53.156;8.220;2022-09-03T14:03:35;26.40;35.70
7658;DHT22;8462;53.156;8.220;2022-09-03T14:06:08;26.40;36.00
7658;DHT22;8462;53.156;8.220;2022-09-03T14:08:44;26.30;36.00
7658;DHT22;8462;53.156;8.220;2022-09-03T14:11:25;26.30;35.70
7658;DHT22;8462;53.156;8.220;2022-09-03T14:14:01;26.30;35.90
7658;DHT22;8462;53.156;8.220;2022-09-03T14:16:37;26.30;36.60
7658;DHT22;8462;53.156;8.220;2022-09-03T14:19:10;26.30;36.40
7658;DHT22;8462;53.156;8.220;2022-09-03T14:21:41;26.20;36.10
7658;DHT22;8462;53.156;8.220;2022-09-03T14:24:14;26.30;36.20
7658;DHT22;8462;53.156;8.220;2022-09-03T14:26:49;26.20;36.00
7658;DHT22;8462;53.156;8.220;2022-09-03T14:29:22;26.20;35.80
7658;DHT22;8462;53.156;8.220;2022-09-03T14:32:16;26.20;35.80
7658;DHT22;8462;53.156;8.220;2022-09-03T14:35:13;26.20;36.00
7658;DHT22;8462;53.156;8.220;2022-09-03T14:38:19;26.20;35.80
7658;DHT22;8462;53.156;8.220;2022-09-03T14:41:02;26.30;36.80
7658;DHT22;8462;53.156;8.220;2022-09-03T14:44:01;26.30;35.80
7658;DHT22;8462;53.156;8.220;2022-09-03T14:47:02;26.30;35.80
7658;DHT22;8462;53.156;8.220;2022-09-03T14:49:58;26.10;35.80
7658;DHT22;8462;53.156;8.220;2022-09-03T14:55:36;26.00;36.30
7658;DHT22;8462;53.156;8.220;2022-09-03T14:58:22;26.10;36.50
7658;DHT22;8462;53.156;8.220;2022-09-03T15:00:57;26.10;36.00
7658;DHT22;8462;53.156;8.220;2022-09-03T15:03:41;26.10;35.60
7658;DHT22;8462;53.156;8.220;2022-09-03T15:06:20;26.00;35.80
7658;DHT22;8462;53.156;8.220;2022-09-03T15:09:00;26.10;36.20
7658;DHT22;8462;53.156;8.220;2022-09-03T15:11:34;26.00;36.20
7658;DHT22;8462;53.156;8.220;2022-09-03T15:14:14;26.10;36.30
7658;DHT22;8462;53.156;8.220;2022-09-03T15:16:50;26.10;36.30
7658;DHT22;8462;53.156;8.220;2022-09-03T15:19:47;26.10;36.10
7658;DHT22;8462;53.156;8.220;2022-09-03T15:22:26;26.00;35.60
7658;DHT22;8462;53.156;8.220;2022-09-03T15:25:06;25.90;36.10
7658;DHT22;8462;53.156;8.220;2022-09-03T15:27:56;25.90;36.30
7658;DHT22;8462;53.156;8.220;2022-09-03T15:30:33;25.90;36.10
7658;DHT22;8462;53.156;8.220;2022-09-03T15:33:10;25.80;36.10
7658;DHT22;8462;53.156;8.220;2022-09-03T15:36:01;25.80;35.80
7658;DHT22;8462;53.156;8.220;2022-09-03T15:38:39;25.70;36.40
7658;DHT22;8462;53.156;8.220;2022-09-03T15:41:10;25.70;36.40
7658;DHT22;8462;53.156;8.220;2022-09-03T15:43:48;25.60;36.30
7658;DHT22;8462;53.156;8.220;2022-09-03T15:46:34;25.60;36.40
7658;DHT22;8462;53.156;8.220;2022-09-03T15:49:07;25.60;36.70
7658;DHT22;8462;53.156;8.220;2022-09-03T15:51:46;25.60;36.80
7658;DHT22;8462;53.156;8.220;2022-09-03T15:54:22;25.60;36.80
7658;DHT22;8462;53.156;8.220;2022-09-03T15:57:01;25.50;36.50
7658;DHT22;8462;53.156;8.220;2022-09-03T15:59:35;25.50;36.40
7658;DHT22;8462;53.156;8.220;2022-09-03T16:02:07;25.40;36.70
7658;DHT22;8462;53.156;8.220;2022-09-03T16:04:58;25.40;36.90
7658;DHT22;8462;53.156;8.220;2022-09-03T16:07:48;25.40;37.00
7658;DHT22;8462;53.156;8.220;2022-09-03T16:10:21;25.40;37.30
7658;DHT22;8462;53.156;8.220;2022-09-03T16:12:56;25.30;36.70
7658;DHT22;8462;53.156;8.220;2022-09-03T16:15:27;25.30;36.70
7658;DHT22;8462;53.156;8.220;2022-09-03T16:17:57;25.30;37.10
7658;DHT22;8462;53.156;8.220;2022-09-03T16:20:33;25.30;37.20
7658;DHT22;8462;53.156;8.220;2022-09-03T16:23:06;25.30;37.40
7658;DHT22;8462;53.156;8.220;2022-09-03T16:25:46;25.30;37.60
7658;DHT22;8462;53.156;8.220;2022-09-03T16:28:18;25.30;37.70
7658;DHT22;8462;53.156;8.220;2022-09-03T16:30:55;25.30;37.70
7658;DHT22;8462;53.156;8.220;2022-09-03T16:33:35;25.20;37.50
7658;DHT22;8462;53.156;8.220;2022-09-03T16:36:21;25.10;37.70
7658;DHT22;8462;53.156;8.220;2022-09-03T16:38:59;25.00;38.00
7658;DHT22;8462;53.156;8.220;2022-09-03T16:41:33;25.00;37.90
7658;DHT22;8462;53.156;8.220;2022-09-03T16:44:09;24.90;37.90
7658;DHT22;8462;53.156;8.220;2022-09-03T16:46:47;24.90;38.20
7658;DHT22;8462;53.156;8.220;2022-09-03T16:49:27;24.80;38.30
7658;DHT22;8462;53.156;8.220;2022-09-03T16:52:05;24.70;38.30